Terminal Aerodrome Forecast
Issued by NWS

Home | Current Version | Previous Version | Text Only | Print | Product List | Glossary On
Versions: 1 2 3 4 5 6 7 8 9 10 11 12 13 14 15
094
FTUS42 KFFC 281727
TAFRYY
TAF
KRYY 281727Z 2818/2918 11006KT P6SM FEW050
     FM290300 VRB03KT P6SM FEW250
     FM291400 34005KT P6SM FEW040 BKN120=

USA.gov is the U.S. government's official web portal to all federal, state and local government web resources and services.